Hawkesbury, Canada
Current Conditions -  °F | °C
As of 5:00 PM on Monday 26 Jan 2015 (Local Time) from CYMX Reporting Station
Few Clouds Few Clouds  
Wind Chill: -22°   Ceiling: Unl
Heat Index: -17°   Visibility: 25mi
Dew Point: -24°   Wind: 5mph
Humidity: 56%   Direction: 50°NE
Pressure: 30.21"   Gusts: NA
Location:  45.61°N, 74.61°W
Report Text: CYMX 262200Z 05004KT 010V080 25SM FEW250 M17/M24 A3021 RMK CI1 SLP240
Loading
Personal Weather Stations






























Interactive Weather Map New forecast layout! Learn more

10-Day Weather Forecast

Advertisements
Track Severe Weather on mobile